Time;durP1;ratioP1;P1;durP2;ratioP2;P2;SDS_P1;SDS_P2;PMS_P1;PMS_P2;Temp;Humidity;BMP_temperature;BMP_pressure;BME280_temperature;BME280_humidity;BME280_pressure;Samples;Min_cycle;Max_cycle;Signal;HPM_P1;HPM_P2
2022/04/30 00:02:02;;;;;;;8.50;7.90;;;11.30;99.90;;;;;;5141517;27;20634;-86
2022/04/30 00:04:28;;;;;;;8.10;7.30;;;11.20;99.90;;;;;;5138138;27;20623;-87
2022/04/30 00:06:55;;;;;;;9.47;8.57;;;11.40;99.90;;;;;;5139535;27;20658;-86
2022/04/30 00:09:22;;;;;;;7.80;7.20;;;11.40;99.90;;;;;;5133280;27;20630;-86
2022/04/30 00:11:50;;;;;;;8.97;8.20;;;11.30;99.90;;;;;;5140597;27;21004;-86
2022/04/30 00:14:16;;;;;;;8.73;8.00;;;11.70;99.90;;;;;;5139800;27;20672;-86
2022/04/30 00:16:43;;;;;;;7.40;6.90;;;11.20;99.90;;;;;;5142039;27;20633;-87
2022/04/30 00:19:11;;;;;;;8.70;7.90;;;11.50;99.90;;;;;;5137300;27;20623;-86
2022/04/30 00:21:38;;;;;;;9.40;8.70;;;11.10;99.90;;;;;;5140657;27;21064;-86
2022/04/30 00:24:06;;;;;;;8.53;7.93;;;11.50;99.90;;;;;;5138966;27;20618;-87
2022/04/30 00:26:33;;;;;;;9.07;8.37;;;11.60;99.90;;;;;;5142411;27;20624;-87
2022/04/30 00:29:05;;;;;;;8.73;8.03;;;11.50;99.90;;;;;;5144547;27;20694;-87
2022/04/30 00:31:32;;;;;;;9.40;8.60;;;11.10;99.90;;;;;;5139571;27;20770;-87
2022/04/30 00:33:59;;;;;;;10.13;9.23;;;11.20;99.90;;;;;;5141703;27;20634;-86
2022/04/30 00:36:27;;;;;;;10.87;9.83;;;11.10;99.90;;;;;;5141232;27;20617;-86
2022/04/30 00:38:54;;;;;;;8.37;7.67;;;11.30;99.90;;;;;;5138733;27;20633;-86
2022/04/30 00:41:21;;;;;;;9.20;8.50;;;11.20;99.90;;;;;;5141941;27;21163;-86
2022/04/30 00:43:50;;;;;;;10.27;9.27;;;11.50;99.90;;;;;;5140327;27;21159;-86
2022/04/30 00:46:20;;;;;;;10.70;9.80;;;11.00;99.90;;;;;;5139717;27;20729;-87
2022/04/30 00:48:47;;;;;;;9.83;8.93;;;11.30;99.90;;;;;;5141792;27;20621;-86
2022/04/30 00:51:18;;;;;;;11.20;10.13;;;11.20;99.90;;;;;;5138606;27;21187;-87
2022/04/30 00:53:47;;;;;;;10.37;9.37;;;11.20;99.90;;;;;;5141443;27;21025;-87
2022/04/30 00:56:18;;;;;;;10.37;9.53;;;11.20;99.90;;;;;;5142239;27;20653;-87
2022/04/30 00:58:46;;;;;;;10.33;9.60;;;11.50;99.90;;;;;;5141468;27;20636;-87
2022/04/30 01:01:13;;;;;;;10.03;9.23;;;11.50;99.90;;;;;;5137543;27;20670;-87
2022/04/30 01:03:41;;;;;;;10.27;9.37;;;11.40;99.90;;;;;;5142910;27;21064;-86
2022/04/30 01:06:09;;;;;;;11.27;10.30;;;11.30;99.90;;;;;;5137805;27;20644;-87
2022/04/30 01:08:38;;;;;;;10.10;9.40;;;11.00;99.90;;;;;;5137024;27;20714;-86
2022/04/30 01:11:06;;;;;;;10.90;9.43;;;11.20;99.90;;;;;;5142174;27;21363;-87
2022/04/30 01:13:35;;;;;;;10.20;9.40;;;11.30;99.90;;;;;;5136961;27;20871;-86
2022/04/30 01:16:03;;;;;;;11.03;9.93;;;11.30;99.90;;;;;;5142815;27;20649;-86
2022/04/30 01:18:30;;;;;;;10.10;9.30;;;11.30;99.90;;;;;;5138056;27;20625;-86
2022/04/30 01:21:01;;;;;;;10.43;9.50;;;11.20;99.90;;;;;;5142012;27;20653;-87
2022/04/30 01:23:29;;;;;;;12.40;11.33;;;11.20;99.90;;;;;;5144740;27;20634;-87
2022/04/30 01:25:56;;;;;;;12.37;11.33;;;11.60;99.90;;;;;;5141320;27;20622;-87
2022/04/30 01:28:25;;;;;;;12.00;10.80;;;11.60;99.90;;;;;;5148124;27;20626;-87
2022/04/30 01:30:52;;;;;;;11.10;10.20;;;11.80;99.90;;;;;;5137878;27;20657;-87
2022/04/30 01:38:48;;;;;;;11.90;11.10;;;12.00;99.90;;;;;;5137935;27;20625;-86
2022/04/30 01:41:15;;;;;;;14.10;12.70;;;11.80;99.90;;;;;;5140825;27;20652;-87
2022/04/30 01:43:46;;;;;;;12.90;11.90;;;12.00;99.90;;;;;;5138775;27;20621;-86
2022/04/30 01:46:14;;;;;;;12.97;11.87;;;11.80;99.90;;;;;;5138809;27;20589;-85
2022/04/30 01:48:45;;;;;;;13.73;12.63;;;11.70;99.90;;;;;;5133840;27;20629;-86
2022/04/30 01:51:13;;;;;;;13.80;12.70;;;12.10;99.90;;;;;;5141515;27;20744;-86
2022/04/30 01:53:40;;;;;;;15.30;13.80;;;12.20;99.90;;;;;;5139636;27;20621;-85
2022/04/30 01:56:08;;;;;;;14.77;13.53;;;12.20;99.90;;;;;;5140744;27;20653;-86
2022/04/30 01:58:35;;;;;;;14.40;13.27;;;12.20;99.90;;;;;;5139954;27;21002;-85
2022/04/30 02:01:07;;;;;;;17.37;15.53;;;12.00;99.90;;;;;;5145645;27;20658;-86
2022/04/30 02:03:35;;;;;;;19.07;16.80;;;11.90;99.90;;;;;;5137485;27;20645;-86
2022/04/30 02:06:02;;;;;;;16.47;14.97;;;11.90;99.90;;;;;;5144953;27;20697;-85
2022/04/30 02:08:32;;;;;;;18.43;16.73;;;11.80;99.90;;;;;;5136350;27;20721;-86
2022/04/30 02:10:58;;;;;;;20.50;17.77;;;12.20;99.90;;;;;;5138448;27;20649;-85
2022/04/30 02:13:28;;;;;;;17.90;16.40;;;12.20;99.90;;;;;;5142558;27;20629;-86
2022/04/30 02:15:58;;;;;;;18.60;16.80;;;12.00;99.90;;;;;;5137632;27;21032;-86
2022/04/30 02:18:26;;;;;;;19.30;17.43;;;12.20;99.90;;;;;;5142316;27;20625;-86
2022/04/30 02:20:54;;;;;;;20.17;18.30;;;12.20;99.90;;;;;;5139300;27;20643;-86
2022/04/30 02:23:22;;;;;;;20.07;18.20;;;12.20;99.90;;;;;;5139404;27;20621;-86
2022/04/30 02:25:51;;;;;;;20.07;17.97;;;12.20;99.90;;;;;;5140952;27;20639;-86
2022/04/30 02:28:18;;;;;;;19.30;17.30;;;12.20;99.90;;;;;;5143877;27;20716;-86
2022/04/30 02:30:47;;;;;;;19.37;17.67;;;11.80;99.90;;;;;;5138010;27;20649;-86
2022/04/30 02:33:15;;;;;;;23.70;19.40;;;12.20;99.90;;;;;;5137998;27;20720;-85
2022/04/30 02:35:44;;;;;;;22.97;19.00;;;12.00;99.90;;;;;;5142056;27;20756;-86
2022/04/30 02:38:12;;;;;;;20.23;18.23;;;12.00;99.90;;;;;;5135497;27;20633;-86
2022/04/30 02:40:40;;;;;;;20.50;18.40;;;11.90;99.90;;;;;;5138717;27;20653;-87
2022/04/30 02:43:09;;;;;;;20.90;19.00;;;11.80;99.90;;;;;;5140627;27;20617;-86
2022/04/30 02:45:37;;;;;;;20.27;18.23;;;12.20;99.90;;;;;;5137854;27;20621;-86
2022/04/30 02:48:07;;;;;;;24.17;19.70;;;12.20;99.90;;;;;;5140969;27;20617;-86
2022/04/30 02:50:35;;;;;;;21.23;19.43;;;12.30;99.90;;;;;;5143822;27;20645;-87
2022/04/30 02:53:02;;;;;;;29.90;20.83;;;12.10;99.90;;;;;;5140696;27;20679;-87
2022/04/30 02:55:30;;;;;;;22.30;19.97;;;11.80;99.90;;;;;;5144912;27;20673;-86
2022/04/30 03:00:43;;;;;;;21.77;19.57;;;12.00;99.90;;;;;;5147144;27;20760;-86
2022/04/30 03:03:13;;;;;;;22.17;19.83;;;12.20;99.90;;;;;;5144962;27;20621;-87
2022/04/30 03:05:43;;;;;;;21.70;19.80;;;12.20;99.90;;;;;;5145016;27;21038;-86
2022/04/30 03:08:13;;;;;;;21.27;19.07;;;12.30;99.90;;;;;;5145236;27;20661;-86
2022/04/30 03:10:40;;;;;;;22.60;20.30;;;12.00;99.90;;;;;;5144986;27;21042;-86
2022/04/30 03:13:06;;;;;;;21.20;19.53;;;12.20;99.90;;;;;;5142294;27;20621;-86
2022/04/30 03:15:34;;;;;;;22.63;19.53;;;12.30;99.90;;;;;;5142544;27;20753;-86
2022/04/30 03:23:33;;;;;;;21.17;19.17;;;12.10;99.90;;;;;;5141349;27;20968;-86
2022/04/30 03:26:00;;;;;;;22.20;19.83;;;12.20;99.90;;;;;;5145033;27;20625;-88
2022/04/30 03:28:26;;;;;;;21.93;20.10;;;12.10;99.90;;;;;;5142900;27;20629;-86
2022/04/30 03:30:54;;;;;;;21.53;19.57;;;12.00;99.90;;;;;;5142804;27;20653;-86
2022/04/30 03:33:21;;;;;;;20.17;18.27;;;11.80;99.90;;;;;;5145668;27;21183;-86
2022/04/30 03:35:50;;;;;;;21.30;19.33;;;12.10;99.90;;;;;;5144711;27;21218;-85
2022/04/30 03:38:16;;;;;;;20.80;19.00;;;12.00;99.90;;;;;;5143413;27;20629;-85
2022/04/30 03:40:43;;;;;;;20.47;18.30;;;11.80;99.90;;;;;;5145634;27;20644;-86
2022/04/30 03:43:10;;;;;;;23.23;21.07;;;11.80;99.90;;;;;;5142587;27;20687;-85
2022/04/30 03:45:37;;;;;;;22.67;20.10;;;11.80;99.90;;;;;;5143228;27;20610;-85
2022/04/30 03:48:05;;;;;;;23.20;20.60;;;11.60;99.90;;;;;;5139595;27;20678;-85
2022/04/30 03:50:31;;;;;;;21.60;19.70;;;12.10;99.90;;;;;;5140232;27;20649;-86
2022/04/30 03:53:00;;;;;;;23.27;21.07;;;11.80;99.90;;;;;;5145067;27;20613;-85
2022/04/30 03:55:27;;;;;;;26.80;24.00;;;11.60;99.90;;;;;;5139570;27;20666;-85
2022/04/30 03:57:55;;;;;;;27.00;23.10;;;12.20;99.90;;;;;;5135692;27;20621;-86
2022/04/30 04:00:23;;;;;;;25.73;23.03;;;11.50;99.90;;;;;;5137803;27;20717;-85
2022/04/30 04:02:51;;;;;;;25.70;23.40;;;12.00;99.90;;;;;;5136296;27;21185;-86
2022/04/30 04:05:18;;;;;;;27.33;24.40;;;11.50;99.90;;;;;;5143630;27;20711;-86
2022/04/30 04:07:45;;;;;;;26.70;24.10;;;11.80;99.90;;;;;;5137994;27;20626;-86
2022/04/30 04:10:14;;;;;;;28.47;25.57;;;11.70;99.90;;;;;;5142486;27;21620;-85
2022/04/30 04:12:41;;;;;;;26.70;24.10;;;11.40;99.90;;;;;;5142549;27;20631;-85
2022/04/30 04:18:01;;;;;;;27.30;24.83;;;11.90;99.90;;;;;;5106178;27;20657;-87
2022/04/30 04:20:28;;;;;;;29.33;26.40;;;11.50;99.90;;;;;;5143375;27;21227;-86
2022/04/30 04:22:56;;;;;;;31.30;28.60;;;11.50;99.90;;;;;;5140102;27;20605;-86
2022/04/30 04:28:09;;;;;;;32.53;29.53;;;11.70;99.90;;;;;;5139989;27;20616;-86
2022/04/30 04:30:36;;;;;;;32.40;29.37;;;11.50;99.90;;;;;;5144669;27;20661;-86
2022/04/30 04:33:03;;;;;;;31.20;27.13;;;11.40;99.90;;;;;;5140575;27;20653;-86
2022/04/30 04:35:30;;;;;;;32.17;29.03;;;11.80;99.90;;;;;;5148198;27;20649;-87
2022/04/30 04:37:57;;;;;;;32.53;29.60;;;11.30;99.90;;;;;;5137829;27;21085;-87
2022/04/30 04:40:26;;;;;;;30.97;28.10;;;11.70;99.90;;;;;;5139357;27;21253;-87
2022/04/30 04:42:52;;;;;;;31.37;28.47;;;11.30;99.90;;;;;;5143144;27;20623;-85
2022/04/30 04:45:22;;;;;;;33.30;29.77;;;11.30;99.90;;;;;;5138885;27;20623;-86
2022/04/30 04:47:51;;;;;;;32.77;29.37;;;11.70;99.90;;;;;;5143979;27;20617;-85
2022/04/30 04:50:18;;;;;;;33.73;30.60;;;11.40;99.90;;;;;;5141725;27;20641;-85
2022/04/30 04:52:46;;;;;;;31.50;28.43;;;11.50;99.90;;;;;;5140185;27;20649;-85
2022/04/30 04:55:14;;;;;;;29.97;26.90;;;11.30;99.90;;;;;;5138931;27;20664;-85
2022/04/30 04:57:43;;;;;;;28.60;25.93;;;11.40;99.90;;;;;;5147931;27;20673;-85
2022/04/30 05:00:11;;;;;;;29.70;26.90;;;11.30;99.90;;;;;;5137960;27;20641;-86
2022/04/30 05:02:38;;;;;;;30.67;27.77;;;11.60;99.90;;;;;;5134892;27;20638;-85
2022/04/30 05:05:06;;;;;;;30.83;27.77;;;11.70;99.90;;;;;;5145496;27;20621;-86
2022/04/30 05:07:34;;;;;;;29.83;26.73;;;11.80;99.90;;;;;;5142940;27;20629;-85
2022/04/30 05:10:02;;;;;;;30.50;27.53;;;11.70;99.90;;;;;;5144820;27;20652;-85
2022/04/30 05:12:29;;;;;;;31.27;28.20;;;11.30;99.90;;;;;;5142481;27;20613;-86
2022/04/30 05:14:58;;;;;;;30.93;28.33;;;11.40;99.90;;;;;;5145754;27;20613;-86
2022/04/30 05:17:25;;;;;;;30.00;27.20;;;11.20;99.90;;;;;;5143167;27;20581;-85
2022/04/30 05:19:52;;;;;;;28.20;25.60;;;11.60;99.90;;;;;;5143433;27;20657;-85
2022/04/30 05:22:19;;;;;;;30.17;27.07;;;11.60;99.90;;;;;;5141370;27;20625;-85
2022/04/30 05:24:47;;;;;;;29.87;26.97;;;11.70;99.90;;;;;;5138835;27;20618;-85
2022/04/30 05:27:13;;;;;;;30.53;27.63;;;11.70;99.90;;;;;;5142746;27;21237;-84
2022/04/30 05:29:40;;;;;;;28.90;26.33;;;11.50;99.90;;;;;;5143183;27;20639;-85
2022/04/30 05:32:09;;;;;;;28.53;26.10;;;11.40;99.90;;;;;;5147310;27;20620;-85
2022/04/30 05:34:36;;;;;;;30.73;27.53;;;11.80;99.90;;;;;;5143379;27;20653;-86
2022/04/30 05:37:03;;;;;;;29.97;27.07;;;11.60;99.90;;;;;;5142491;27;20613;-86
2022/04/30 05:39:29;;;;;;;29.83;27.20;;;11.80;99.90;;;;;;5135635;27;20613;-86
2022/04/30 05:41:56;;;;;;;28.63;26.10;;;11.50;99.90;;;;;;5140982;27;20649;-85
2022/04/30 05:44:27;;;;;;;29.87;27.03;;;11.40;99.90;;;;;;5138792;27;20612;-85
2022/04/30 05:46:54;;;;;;;31.63;28.47;;;11.60;99.90;;;;;;5143912;27;21009;-84
2022/04/30 05:49:22;;;;;;;29.90;27.00;;;11.80;99.90;;;;;;5140368;27;20989;-85
2022/04/30 05:51:50;;;;;;;30.53;27.40;;;11.70;99.90;;;;;;5144291;27;20649;-84
2022/04/30 05:54:17;;;;;;;30.40;27.50;;;11.60;99.90;;;;;;5142928;27;20637;-85
2022/04/30 05:56:44;;;;;;;31.33;28.23;;;11.50;99.90;;;;;;5140526;27;20732;-84
2022/04/30 05:59:11;;;;;;;30.03;27.20;;;11.90;99.90;;;;;;5141323;27;20979;-84
2022/04/30 06:01:37;;;;;;;28.20;25.30;;;12.00;99.90;;;;;;5140373;27;20693;-85
2022/04/30 06:04:06;;;;;;;30.00;27.40;;;11.90;99.90;;;;;;5143303;27;20613;-86
2022/04/30 06:06:34;;;;;;;29.77;26.70;;;11.60;99.90;;;;;;5144606;27;20602;-86
2022/04/30 06:09:01;;;;;;;30.13;27.43;;;11.60;99.90;;;;;;5139785;27;20617;-86
2022/04/30 06:11:28;;;;;;;30.90;27.87;;;11.90;99.90;;;;;;5140919;27;20621;-85
2022/04/30 06:13:55;;;;;;;28.37;25.67;;;11.70;99.90;;;;;;5145572;27;20995;-85
2022/04/30 06:16:24;;;;;;;29.50;26.70;;;11.80;99.90;;;;;;5144670;27;20642;-85
2022/04/30 06:18:50;;;;;;;30.40;27.50;;;12.10;99.90;;;;;;5143633;27;20984;-85
2022/04/30 06:21:17;;;;;;;33.27;30.20;;;12.00;99.90;;;;;;5141387;27;20617;-85
2022/04/30 06:23:45;;;;;;;31.00;28.30;;;11.80;99.90;;;;;;5143757;27;20947;-85
2022/04/30 06:26:12;;;;;;;31.17;28.17;;;12.00;99.90;;;;;;5142539;27;20601;-85
2022/04/30 06:28:39;;;;;;;30.37;27.30;;;12.20;99.90;;;;;;5134882;27;20653;-85
2022/04/30 06:31:06;;;;;;;28.40;25.67;;;12.10;99.90;;;;;;5145941;27;21326;-86
2022/04/30 06:33:33;;;;;;;29.50;26.63;;;12.00;99.90;;;;;;5143131;27;21206;-87
2022/04/30 06:36:00;;;;;;;30.50;27.50;;;12.00;99.90;;;;;;5144342;27;20664;-86
2022/04/30 06:38:27;;;;;;;30.00;27.17;;;11.90;99.90;;;;;;5147224;27;21220;-86
2022/04/30 06:40:55;;;;;;;30.43;27.53;;;12.30;99.90;;;;;;5145567;27;20670;-87
2022/04/30 06:43:22;;;;;;;29.07;26.57;;;12.20;99.90;;;;;;5142400;27;20993;-85
2022/04/30 06:45:49;;;;;;;28.97;26.10;;;12.10;99.90;;;;;;5146473;27;20654;-84
2022/04/30 06:48:16;;;;;;;29.80;26.87;;;12.10;99.90;;;;;;5144164;27;20632;-86
2022/04/30 06:50:44;;;;;;;26.80;24.40;;;12.10;99.90;;;;;;5146702;27;20616;-86
2022/04/30 06:58:50;;;;;;;28.40;25.80;;;12.30;99.90;;;;;;5138770;27;20609;-86
2022/04/30 07:01:28;;;;;;;28.70;25.97;;;12.50;99.90;;;;;;5140219;27;20690;-86
2022/04/30 07:04:01;;;;;;;28.90;26.40;;;12.60;99.90;;;;;;5143105;27;20666;-86
2022/04/30 07:06:29;;;;;;;28.60;25.73;;;12.70;99.90;;;;;;5149201;27;20696;-86
2022/04/30 07:08:55;;;;;;;27.80;25.30;;;12.70;99.90;;;;;;5142363;27;20613;-85
2022/04/30 07:11:24;;;;;;;27.73;25.27;;;12.70;99.90;;;;;;5140531;27;20625;-86
2022/04/30 07:13:51;;;;;;;25.70;23.50;;;12.70;99.90;;;;;;5138569;27;21005;-86
2022/04/30 07:16:18;;;;;;;26.30;23.90;;;12.70;99.90;;;;;;5145110;27;20647;-86
2022/04/30 07:18:44;;;;;;;24.77;22.57;;;12.30;99.90;;;;;;5141664;27;20626;-85
2022/04/30 07:21:12;;;;;;;25.10;22.67;;;12.40;99.90;;;;;;5146171;27;20929;-85
2022/04/30 07:23:40;;;;;;;26.70;24.40;;;12.70;99.90;;;;;;5139667;27;20981;-86
2022/04/30 07:26:07;;;;;;;25.83;23.70;;;12.70;99.90;;;;;;5146649;27;20703;-83
2022/04/30 07:28:36;;;;;;;25.20;22.73;;;12.40;99.90;;;;;;5144765;27;20620;-84
2022/04/30 07:31:04;;;;;;;27.30;24.70;;;12.40;99.90;;;;;;5148052;27;20624;-84
2022/04/30 07:33:32;;;;;;;26.83;24.43;;;12.60;99.90;;;;;;5146798;27;20647;-84
2022/04/30 07:35:59;;;;;;;26.27;23.70;;;12.30;99.90;;;;;;5146488;27;20661;-85
2022/04/30 07:38:26;;;;;;;24.70;22.57;;;12.30;99.90;;;;;;5139266;27;20960;-87
2022/04/30 07:40:55;;;;;;;25.07;22.80;;;12.40;99.90;;;;;;5140953;27;20625;-87
2022/04/30 07:43:22;;;;;;;25.60;23.30;;;12.20;99.90;;;;;;5143203;27;20645;-88
2022/04/30 07:45:50;;;;;;;25.07;22.70;;;12.20;99.90;;;;;;5144753;27;20637;-88
2022/04/30 07:48:18;;;;;;;25.43;23.43;;;12.50;99.90;;;;;;5123727;27;20988;-88
2022/04/30 07:50:45;;;;;;;23.87;21.83;;;12.10;99.90;;;;;;5149693;27;20630;-88
2022/04/30 07:53:14;;;;;;;24.23;21.93;;;12.20;99.90;;;;;;5142537;27;20645;-88
2022/04/30 07:55:42;;;;;;;23.63;21.50;;;12.40;99.90;;;;;;5136450;27;20692;-87
2022/04/30 07:58:09;;;;;;;24.67;22.43;;;12.60;99.90;;;;;;5142604;27;20613;-87
2022/04/30 08:00:36;;;;;;;22.67;20.77;;;12.60;99.90;;;;;;5143796;27;20620;-86
2022/04/30 08:03:05;;;;;;;23.20;21.10;;;12.60;99.90;;;;;;5144935;27;20684;-87
2022/04/30 08:05:32;;;;;;;24.20;22.03;;;12.60;99.90;;;;;;5143447;27;21147;-87
2022/04/30 08:07:59;;;;;;;23.80;21.37;;;12.60;99.90;;;;;;5144161;27;20649;-87
2022/04/30 08:10:26;;;;;;;23.77;21.63;;;12.10;99.90;;;;;;5143280;27;20643;-87
2022/04/30 08:12:54;;;;;;;25.83;21.43;;;12.50;99.90;;;;;;5140875;27;20649;-88
2022/04/30 08:15:22;;;;;;;22.43;20.70;;;12.30;99.90;;;;;;5145830;27;20660;-88
2022/04/30 08:17:49;;;;;;;24.00;21.80;;;12.60;99.90;;;;;;5146370;27;20657;-87
2022/04/30 08:20:17;;;;;;;22.30;20.40;;;12.40;99.90;;;;;;5148958;27;20625;-87
2022/04/30 08:22:44;;;;;;;23.10;21.20;;;12.30;99.90;;;;;;5141160;27;20653;-87
2022/04/30 08:25:12;;;;;;;22.43;20.33;;;12.30;99.90;;;;;;5144369;27;20629;-87
2022/04/30 08:27:38;;;;;;;23.90;21.80;;;12.70;99.90;;;;;;5142576;27;20649;-87
2022/04/30 08:30:06;;;;;;;22.83;20.53;;;12.90;99.90;;;;;;5141471;27;20621;-87
2022/04/30 08:32:33;;;;;;;21.97;19.97;;;12.80;99.90;;;;;;5140290;27;20583;-87
2022/04/30 08:35:01;;;;;;;21.57;19.77;;;12.60;99.90;;;;;;5139234;27;20615;-88
2022/04/30 08:37:30;;;;;;;23.60;21.60;;;12.90;99.90;;;;;;5139532;27;20665;-86
2022/04/30 08:39:58;;;;;;;21.40;19.60;;;12.60;99.90;;;;;;5139960;27;20625;-87
2022/04/30 08:42:25;;;;;;;21.47;19.57;;;13.00;99.90;;;;;;5146294;27;20978;-88
2022/04/30 08:44:52;;;;;;;21.00;19.10;;;13.00;99.90;;;;;;5145219;27;20649;-87
2022/04/30 08:47:19;;;;;;;20.97;19.17;;;13.00;99.90;;;;;;5139091;27;20622;-88
2022/04/30 08:49:46;;;;;;;20.57;18.83;;;13.00;99.90;;;;;;5144922;27;20591;-87
2022/04/30 08:52:15;;;;;;;22.50;20.50;;;12.60;99.90;;;;;;5139959;27;20617;-87
2022/04/30 08:54:47;;;;;;;19.83;18.33;;;13.10;99.90;;;;;;5142567;27;21012;-87
2022/04/30 08:57:15;;;;;;;21.33;19.57;;;13.10;99.90;;;;;;5144218;27;20661;-88
2022/04/30 08:59:42;;;;;;;22.50;20.50;;;13.20;99.90;;;;;;5145099;27;20693;-88
2022/04/30 09:02:13;;;;;;;20.93;19.30;;;13.20;99.90;;;;;;5148664;27;20628;-87
2022/04/30 09:04:46;;;;;;;20.70;18.80;;;13.20;99.90;;;;;;5139549;27;20664;-88
2022/04/30 09:07:15;;;;;;;20.50;18.60;;;13.30;99.90;;;;;;5145753;27;21213;-87
2022/04/30 09:09:43;;;;;;;21.00;19.30;;;13.00;99.90;;;;;;5142100;27;21060;-87
2022/04/30 09:12:13;;;;;;;20.90;19.20;;;13.30;99.90;;;;;;5144014;27;20700;-88
2022/04/30 09:14:45;;;;;;;20.07;18.40;;;13.30;99.90;;;;;;5138742;27;21133;-88
2022/04/30 09:17:15;;;;;;;19.17;17.70;;;13.30;99.90;;;;;;5137652;27;20658;-88
2022/04/30 09:19:50;;;;;;;19.60;17.70;;;13.30;99.90;;;;;;5138318;27;20713;-87
2022/04/30 09:22:27;;;;;;;19.40;17.90;;;13.40;99.90;;;;;;5136706;27;20614;-85
2022/04/30 09:24:58;;;;;;;20.90;18.90;;;13.30;99.90;;;;;;5141270;27;20673;-87
2022/04/30 09:27:25;;;;;;;18.87;17.33;;;13.30;99.90;;;;;;5142346;27;20631;-87
2022/04/30 09:29:53;;;;;;;18.57;17.07;;;13.30;99.90;;;;;;5138106;27;20610;-87
2022/04/30 09:32:21;;;;;;;17.50;16.00;;;13.20;99.90;;;;;;5141706;27;20630;-87
2022/04/30 09:37:45;;;;;;;15.37;14.27;;;12.90;99.90;;;;;;5134888;27;21612;-88
2022/04/30 09:40:24;;;;;;;15.70;14.50;;;13.00;99.90;;;;;;5136018;27;20637;-86
2022/04/30 09:42:51;;;;;;;14.93;13.83;;;13.00;99.90;;;;;;5141254;27;20637;-87
2022/04/30 09:45:30;;;;;;;16.70;15.20;;;13.20;99.90;;;;;;5144042;27;20714;-86
2022/04/30 09:47:58;;;;;;;15.63;14.50;;;13.10;99.90;;;;;;5138155;27;20619;-87
2022/04/30 09:56:07;;;;;;;14.97;13.47;;;12.70;99.90;;;;;;5142077;27;20636;-88
2022/04/30 09:58:39;;;;;;;15.20;14.10;;;12.90;99.90;;;;;;5137932;27;20650;-87
2022/04/30 10:01:07;;;;;;;15.37;14.03;;;12.80;99.90;;;;;;5137105;27;21308;-86
2022/04/30 10:03:35;;;;;;;13.73;12.43;;;12.70;99.90;;;;;;5144424;27;20657;-87
2022/04/30 10:06:03;;;;;;;14.40;13.37;;;12.80;99.90;;;;;;5145751;27;20649;-88
2022/04/30 10:08:35;;;;;;;14.30;13.20;;;12.80;99.90;;;;;;5148338;27;21174;-88
2022/04/30 10:11:14;;;;;;;14.10;13.10;;;12.70;99.90;;;;;;5147265;27;20637;-86
2022/04/30 10:13:49;;;;;;;14.27;12.97;;;13.00;99.90;;;;;;5140687;27;20957;-88
2022/04/30 10:16:23;;;;;;;12.50;11.57;;;12.60;99.90;;;;;;5143924;27;20612;-86
2022/04/30 10:19:10;;;;;;;12.13;11.13;;;12.60;99.90;;;;;;5146460;27;20666;-86
2022/04/30 10:21:37;;;;;;;12.83;11.63;;;12.60;99.90;;;;;;5153172;27;20702;-86
2022/04/30 10:24:05;;;;;;;10.77;9.97;;;12.60;99.90;;;;;;5145445;27;20917;-88
2022/04/30 10:26:35;;;;;;;9.60;8.80;;;12.50;99.90;;;;;;5142848;27;20640;-87
2022/04/30 10:29:02;;;;;;;9.17;8.50;;;12.50;99.90;;;;;;5143461;27;20609;-87
2022/04/30 10:31:29;;;;;;;10.70;10.00;;;12.50;99.90;;;;;;5143897;27;20625;-88
2022/04/30 10:33:56;;;;;;;10.10;9.30;;;12.20;99.90;;;;;;5148211;27;20624;-87
2022/04/30 10:36:23;;;;;;;9.90;9.30;;;12.40;99.90;;;;;;5135350;27;20637;-88
2022/04/30 10:38:59;;;;;;;9.80;9.00;;;12.10;99.90;;;;;;5134540;27;20661;-87
2022/04/30 10:41:27;;;;;;;9.80;9.17;;;12.50;99.90;;;;;;5137203;27;21203;-87
2022/04/30 10:44:04;;;;;;;9.90;9.20;;;12.60;99.90;;;;;;5145578;27;20617;-86
2022/04/30 10:46:37;;;;;;;11.27;10.47;;;12.10;99.90;;;;;;5144681;27;20622;-86
2022/04/30 10:49:05;;;;;;;10.80;9.80;;;12.60;99.90;;;;;;5147583;27;20981;-87
2022/04/30 10:51:38;;;;;;;10.10;9.30;;;12.70;99.90;;;;;;5146047;27;20980;-86
2022/04/30 10:54:09;;;;;;;9.83;9.10;;;12.70;99.90;;;;;;5144236;27;20970;-86
2022/04/30 10:56:38;;;;;;;10.10;9.27;;;12.80;99.90;;;;;;5139875;27;21146;-87
2022/04/30 10:59:07;;;;;;;8.47;7.87;;;12.90;99.90;;;;;;5141253;27;20624;-86
2022/04/30 11:01:34;;;;;;;8.23;7.60;;;12.80;99.90;;;;;;5147695;27;20633;-86
2022/04/30 11:04:05;;;;;;;10.03;9.33;;;13.10;99.90;;;;;;5148471;27;21317;-86
2022/04/30 11:06:33;;;;;;;8.73;7.83;;;13.20;99.90;;;;;;5143367;27;20989;-86
2022/04/30 11:09:02;;;;;;;8.97;8.20;;;13.30;99.90;;;;;;5150915;27;21183;-87
2022/04/30 11:11:29;;;;;;;9.80;9.00;;;13.50;99.90;;;;;;5145810;27;20625;-86
2022/04/30 11:14:01;;;;;;;10.90;9.83;;;13.70;99.90;;;;;;5147721;27;20605;-86
2022/04/30 11:16:34;;;;;;;9.47;8.67;;;13.90;99.90;;;;;;5148027;27;21569;-86
2022/04/30 11:19:03;;;;;;;7.40;6.90;;;14.00;99.90;;;;;;5141051;27;20669;-87
2022/04/30 11:21:35;;;;;;;6.90;6.27;;;14.20;99.90;;;;;;5139536;27;21219;-86
2022/04/30 11:24:02;;;;;;;5.40;5.00;;;14.30;99.90;;;;;;5143330;27;20662;-86
2022/04/30 11:26:30;;;;;;;5.20;4.63;;;14.40;99.90;;;;;;5135314;27;20626;-86
2022/04/30 11:28:58;;;;;;;4.23;3.93;;;14.40;99.90;;;;;;5142568;27;20620;-87
2022/04/30 11:31:25;;;;;;;4.20;3.90;;;14.40;99.90;;;;;;5138415;27;20696;-88
2022/04/30 11:33:54;;;;;;;3.60;3.30;;;14.50;99.90;;;;;;5141149;27;20631;-90
2022/04/30 11:36:21;;;;;;;3.23;3.03;;;14.50;99.90;;;;;;5144832;27;21101;-90
2022/04/30 11:38:53;;;;;;;2.70;2.50;;;14.50;99.90;;;;;;5148170;27;20667;-87
2022/04/30 11:41:20;;;;;;;3.40;3.20;;;14.40;99.90;;;;;;5142702;27;20618;-87
2022/04/30 11:43:58;;;;;;;3.50;3.30;;;14.40;99.90;;;;;;5145430;27;20633;-87
2022/04/30 11:46:26;;;;;;;3.40;3.20;;;14.30;99.90;;;;;;5137777;27;20643;-88
2022/04/30 11:48:54;;;;;;;3.47;3.27;;;14.40;99.90;;;;;;5145379;27;20621;-87
2022/04/30 11:51:23;;;;;;;3.43;3.13;;;14.30;99.90;;;;;;5143510;27;20633;-87
2022/04/30 11:53:50;;;;;;;3.47;3.27;;;14.40;99.90;;;;;;5143544;27;21208;-87
2022/04/30 11:56:17;;;;;;;3.60;3.30;;;14.50;99.90;;;;;;5140725;27;20621;-88
2022/04/30 11:58:45;;;;;;;4.20;3.80;;;14.70;99.90;;;;;;5141441;27;21294;-89
2022/04/30 12:01:23;;;;;;;3.50;3.20;;;14.90;99.90;;;;;;5141697;27;20643;-88
2022/04/30 12:04:01;;;;;;;3.90;3.60;;;15.00;99.90;;;;;;5145095;27;20732;-88
2022/04/30 12:06:29;;;;;;;3.90;3.70;;;15.30;99.90;;;;;;5139159;27;20815;-87
2022/04/30 12:08:57;;;;;;;4.53;4.23;;;15.60;99.90;;;;;;5142682;27;21199;-88
2022/04/30 12:11:25;;;;;;;5.03;4.70;;;15.60;99.90;;;;;;5124363;27;20614;-87
2022/04/30 12:13:59;;;;;;;3.87;3.60;;;15.80;99.90;;;;;;5143085;27;20633;-87
2022/04/30 12:16:25;;;;;;;3.40;3.10;;;16.20;99.90;;;;;;5143160;27;20601;-87
2022/04/30 12:24:44;;;;;;;4.30;4.00;;;16.10;99.90;;;;;;5137777;27;21200;-87
2022/04/30 12:27:21;;;;;;;4.10;3.80;;;16.00;99.90;;;;;;5145351;27;20626;-88
2022/04/30 12:29:48;;;;;;;3.73;3.43;;;15.80;99.90;;;;;;5144879;27;20712;-87
2022/04/30 12:32:20;;;;;;;5.10;4.70;;;16.20;99.90;;;;;;5142397;27;20664;-87
2022/04/30 12:34:52;;;;;;;3.97;3.77;;;16.70;99.90;;;;;;5140081;27;20619;-87
2022/04/30 12:37:30;;;;;;;3.90;3.60;;;16.90;99.90;;;;;;5140484;27;20737;-87
2022/04/30 12:39:58;;;;;;;4.57;4.17;;;16.90;99.90;;;;;;5139490;27;20621;-88
2022/04/30 12:42:24;;;;;;;4.30;4.00;;;16.90;99.90;;;;;;5144815;27;20623;-87
2022/04/30 12:44:51;;;;;;;3.90;3.60;;;16.80;99.90;;;;;;5144181;27;20635;-87
2022/04/30 12:47:18;;;;;;;3.73;3.53;;;16.70;99.90;;;;;;5147183;27;21187;-87
2022/04/30 12:49:45;;;;;;;3.10;2.90;;;16.50;99.90;;;;;;5145264;27;21281;-91
2022/04/30 12:52:11;;;;;;;4.20;4.00;;;16.60;99.90;;;;;;5147282;27;20694;-90
2022/04/30 12:54:40;;;;;;;3.63;3.43;;;16.40;99.90;;;;;;5142619;27;21190;-87
2022/04/30 12:57:07;;;;;;;4.80;4.50;;;16.40;99.90;;;;;;5150583;27;20697;-89
2022/04/30 12:59:34;;;;;;;3.77;3.47;;;16.20;99.90;;;;;;5142862;27;20657;-87
2022/04/30 13:02:01;;;;;;;3.90;3.60;;;16.00;99.90;;;;;;5142643;27;20629;-87
2022/04/30 13:04:27;;;;;;;3.00;2.67;;;15.90;99.90;;;;;;5142005;27;20629;-87
2022/04/30 13:06:54;;;;;;;2.70;2.27;;;15.80;99.90;;;;;;5144505;27;21198;-87
2022/04/30 13:14:52;;;;;;;4.17;3.77;;;14.90;99.90;;;;;;5140780;27;20771;-87
2022/04/30 13:17:19;;;;;;;4.47;4.17;;;14.60;99.90;;;;;;5145636;27;20645;-87
2022/04/30 13:19:46;;;;;;;5.13;4.73;;;14.50;99.90;;;;;;5139848;27;20627;-87
2022/04/30 13:22:13;;;;;;;6.13;5.73;;;14.40;99.90;;;;;;5142440;27;20622;-87
2022/04/30 13:24:40;;;;;;;6.60;6.13;;;14.30;99.90;;;;;;5147075;27;20652;-86